Time;durP1;ratioP1;P1;durP2;ratioP2;P2;SDS_P1;SDS_P2;PMS_P1;PMS_P2;Temp;Humidity;BMP_temperature;BMP_pressure;BME280_temperature;BME280_humidity;BME280_pressure;Samples;Min_cycle;Max_cycle;Signal;HPM_P1;HPM_P2
2021/07/30 00:02:08;;;;;;;;;;;;;;;29.41;40.07;99213.53;5090898;28;19923;-48
2021/07/30 00:04:33;;;;;;;;;;;;;;;28.45;42.24;99217.25;5090637;28;19912;-50
2021/07/30 00:06:58;;;;;;;;;;;;;;;29.04;41.14;99213.47;5090490;28;19919;-51
2021/07/30 00:09:24;;;;;;;;;;;;;;;29.35;40.39;99212.16;5090749;28;19920;-48
2021/07/30 00:11:49;;;;;;;;;;;;;;;28.88;41.54;99209.78;5090488;28;19912;-50
2021/07/30 00:14:14;;;;;;;;;;;;;;;29.37;40.31;99212.63;5090228;28;20008;-47
2021/07/30 00:16:40;;;;;;;;;;;;;;;29.60;39.92;99217.66;5090246;28;19912;-49
2021/07/30 00:19:05;;;;;;;;;;;;;;;29.84;39.38;99218.81;5090305;28;19928;-48
2021/07/30 00:21:30;;;;;;;;;;;;;;;30.38;38.30;99210.22;5090361;28;19961;-48
2021/07/30 00:23:56;;;;;;;;;;;;;;;30.16;38.75;99211.53;5090565;28;19969;-47
2021/07/30 00:26:21;;;;;;;;;;;;;;;29.76;39.62;99206.81;5090396;28;19962;-49
2021/07/30 00:28:46;;;;;;;;;;;;;;;29.72;39.98;99203.94;5090158;28;19912;-50
2021/07/30 00:31:11;;;;;;;;;;;;;;;29.67;39.69;99204.16;5089873;28;20356;-52
2021/07/30 00:33:37;;;;;;;;;;;;;;;29.91;39.35;99210.78;5089682;28;19919;-51
2021/07/30 00:36:02;;;;;;;;;;;;;;;30.45;38.15;99209.63;5089780;28;20006;-51
2021/07/30 00:38:27;;;;;;;;;;;;;;;30.28;38.89;99207.94;5089690;28;19951;-49
2021/07/30 00:40:53;;;;;;;;;;;;;;;29.97;39.59;99209.41;5090051;28;19990;-50
2021/07/30 00:43:18;;;;;;;;;;;;;;;29.99;39.05;99205.16;5096685;28;19912;-51
2021/07/30 00:45:43;;;;;;;;;;;;;;;29.98;39.50;99211.78;5110121;28;19912;-52
2021/07/30 00:48:09;;;;;;;;;;;;;;;29.98;39.72;99203.56;5110068;28;20320;-49
2021/07/30 00:50:34;;;;;;;;;;;;;;;30.46;38.41;99205.72;5103041;28;20006;-51
2021/07/30 00:53:00;;;;;;;;;;;;;;;29.95;39.67;99206.19;5088387;28;20282;-51
2021/07/30 00:55:25;;;;;;;;;;;;;;;29.78;40.10;99202.59;5090019;28;19920;-51
2021/07/30 00:57:53;;;;;;;;;;;;;;;29.74;39.97;99206.34;5088627;28;19985;-51
2021/07/30 01:00:19;;;;;;;;;;;;;;;29.35;40.76;99206.69;5090048;28;20265;-49
2021/07/30 01:02:44;;;;;;;;;;;;;;;30.04;39.30;99201.38;5089918;28;19908;-50
2021/07/30 01:05:10;;;;;;;;;;;;;;;29.79;40.02;99195.16;5088613;28;20006;-48
2021/07/30 01:07:35;;;;;;;;;;;;;;;29.76;40.12;99196.66;5093254;28;19916;-51
2021/07/30 01:10:01;;;;;;;;;;;;;;;29.71;40.55;99193.31;5094049;28;19985;-50
2021/07/30 01:12:26;;;;;;;;;;;;;;;29.82;40.28;99198.00;5094104;28;19912;-51
2021/07/30 01:14:54;;;;;;;;;;;;;;;30.04;39.70;99192.34;5092346;28;19920;-51
2021/07/30 01:17:19;;;;;;;;;;;;;;;30.42;39.14;99186.41;5093604;28;19923;-50
2021/07/30 01:19:44;;;;;;;;;;;;;;;30.18;39.78;99193.56;5093015;28;19924;-52
2021/07/30 01:22:14;;;;;;;;;;;;;;;29.92;40.46;99195.94;5093607;28;20022;-50
2021/07/30 01:24:39;;;;;;;;;;;;;;;29.81;40.75;99192.84;5092328;28;19969;-52
2021/07/30 01:27:04;;;;;;;;;;;;;;;29.61;40.76;99189.09;5093449;28;19912;-51
2021/07/30 01:29:30;;;;;;;;;;;;;;;29.86;40.79;99198.13;5093533;28;19920;-52
2021/07/30 01:31:55;;;;;;;;;;;;;;;30.40;39.51;99202.44;5093454;28;19912;-51
2021/07/30 01:34:20;;;;;;;;;;;;;;;29.99;40.34;99198.91;5093324;28;19913;-50
2021/07/30 01:36:46;;;;;;;;;;;;;;;29.73;41.14;99188.31;5093415;28;19919;-49
2021/07/30 01:39:11;;;;;;;;;;;;;;;29.65;41.45;99194.69;5092087;28;19912;-50
2021/07/30 01:41:36;;;;;;;;;;;;;;;29.86;40.60;99195.38;5093309;28;19999;-50
2021/07/30 01:44:02;;;;;;;;;;;;;;;30.13;39.70;99196.56;5105919;28;19923;-49
2021/07/30 01:46:27;;;;;;;;;;;;;;;30.23;39.44;99191.72;5113694;28;19911;-46
2021/07/30 01:48:52;;;;;;;;;;;;;;;29.81;39.76;99190.91;5113751;28;19916;-49
2021/07/30 01:51:17;;;;;;;;;;;;;;;29.65;39.87;99184.53;5100340;28;19913;-52
2021/07/30 01:53:43;;;;;;;;;;;;;;;29.63;40.04;99184.06;5093254;28;19912;-48
2021/07/30 01:56:08;;;;;;;;;;;;;;;29.79;38.63;99186.94;5093763;28;20284;-51
2021/07/30 01:58:34;;;;;;;;;;;;;;;30.18;37.97;99184.56;5093626;28;20260;-49
2021/07/30 02:00:59;;;;;;;;;;;;;;;30.29;37.66;99173.84;5093493;28;19955;-48
2021/07/30 02:03:24;;;;;;;;;;;;;;;30.08;37.57;99179.53;5093955;28;19969;-50
2021/07/30 02:05:49;;;;;;;;;;;;;;;30.05;37.77;99183.78;5093767;28;19920;-48
2021/07/30 02:08:15;;;;;;;;;;;;;;;29.98;36.86;99183.56;5093264;28;20336;-50
2021/07/30 02:10:40;;;;;;;;;;;;;;;30.11;37.03;99187.09;5093530;28;19912;-50
2021/07/30 02:15:49;;;;;;;;;;;;;;;30.18;37.14;99190.03;5093607;28;19946;-51
2021/07/30 02:18:15;;;;;;;;;;;;;;;29.88;38.01;99193.09;5091808;28;19924;-48
2021/07/30 02:20:40;;;;;;;;;;;;;;;29.53;38.67;99195.47;5092284;28;19946;-51
2021/07/30 02:23:05;;;;;;;;;;;;;;;29.57;38.41;99190.94;5093496;28;20286;-51
2021/07/30 02:25:31;;;;;;;;;;;;;;;29.61;38.38;99200.06;5093037;28;20004;-51
2021/07/30 02:27:56;;;;;;;;;;;;;;;30.15;37.18;99209.94;5093198;28;20307;-49
2021/07/30 02:30:21;;;;;;;;;;;;;;;29.55;38.91;99204.97;5092942;28;20402;-52
2021/07/30 02:32:46;;;;;;;;;;;;;;;29.30;39.96;99206.09;5092812;28;19916;-49
2021/07/30 02:35:12;;;;;;;;;;;;;;;29.32;39.86;99201.09;5092756;28;20006;-52
2021/07/30 02:37:37;;;;;;;;;;;;;;;29.51;39.50;99204.06;5092649;28;20303;-51
2021/07/30 02:40:03;;;;;;;;;;;;;;;29.81;38.69;99207.38;5092916;28;19912;-52
2021/07/30 02:42:28;;;;;;;;;;;;;;;29.65;39.03;99202.91;5092787;28;19916;-49
2021/07/30 02:44:53;;;;;;;;;;;;;;;29.18;39.99;99207.69;5112942;28;20011;-49
2021/07/30 02:47:18;;;;;;;;;;;;;;;29.11;39.98;99207.44;5113252;28;19918;-51
2021/07/30 02:49:44;;;;;;;;;;;;;;;29.13;40.19;99205.19;5112970;28;20285;-47
2021/07/30 02:52:09;;;;;;;;;;;;;;;27.88;43.03;99206.91;5113032;28;19912;-51
2021/07/30 02:54:34;;;;;;;;;;;;;;;28.34;41.94;99202.41;5112789;28;19916;-50
2021/07/30 02:57:00;;;;;;;;;;;;;;;28.08;43.08;99208.91;5112764;28;20030;-51
2021/07/30 02:59:25;;;;;;;;;;;;;;;27.97;42.86;99213.16;5112931;28;19922;-49
2021/07/30 03:01:50;;;;;;;;;;;;;;;27.27;44.76;99208.03;5112690;28;19911;-51
2021/07/30 03:04:15;;;;;;;;;;;;;;;27.24;44.99;99205.91;5113058;28;19927;-51
2021/07/30 03:06:41;;;;;;;;;;;;;;;27.75;44.06;99214.22;5112544;28;20002;-52
2021/07/30 03:09:06;;;;;;;;;;;;;;;27.06;45.46;99215.31;5112842;28;19912;-50
2021/07/30 03:11:31;;;;;;;;;;;;;;;26.53;47.12;99231.75;5112721;28;19911;-51
2021/07/30 03:13:56;;;;;;;;;;;;;;;26.43;47.38;99226.63;5112705;28;19911;-51
2021/07/30 03:16:22;;;;;;;;;;;;;;;26.53;47.55;99225.50;5112483;28;20076;-49
2021/07/30 03:18:47;;;;;;;;;;;;;;;26.71;47.09;99221.66;5112644;28;20363;-50
2021/07/30 03:21:12;;;;;;;;;;;;;;;26.97;46.60;99226.25;5095343;28;19923;-50
2021/07/30 03:23:38;;;;;;;;;;;;;;;26.48;47.90;99222.94;5092114;28;20326;-51
2021/07/30 03:26:03;;;;;;;;;;;;;;;26.47;47.89;99224.88;5092153;28;20325;-50
2021/07/30 03:28:28;;;;;;;;;;;;;;;26.51;47.89;99227.75;5091827;28;19926;-50
2021/07/30 03:30:57;;;;;;;;;;;;;;;26.76;47.48;99228.09;5092061;28;19977;-49
2021/07/30 03:33:22;;;;;;;;;;;;;;;27.43;45.67;99221.94;5092110;28;19916;-51
2021/07/30 03:35:48;;;;;;;;;;;;;;;27.04;46.77;99228.50;5091568;28;19927;-49
2021/07/30 03:38:13;;;;;;;;;;;;;;;27.02;46.86;99228.03;5091550;28;20244;-48
2021/07/30 03:40:38;;;;;;;;;;;;;;;27.11;46.54;99234.25;5091909;28;19912;-51
2021/07/30 03:43:04;;;;;;;;;;;;;;;26.90;46.76;99236.88;5096340;28;19969;-51
2021/07/30 03:45:29;;;;;;;;;;;;;;;27.09;46.41;99226.41;5112303;28;19916;-48
2021/07/30 03:47:54;;;;;;;;;;;;;;;27.27;46.13;99232.63;5111724;28;19912;-51
2021/07/30 03:50:20;;;;;;;;;;;;;;;27.39;44.95;99242.06;5111123;28;20015;-49
2021/07/30 03:52:45;;;;;;;;;;;;;;;27.00;45.37;99227.56;5111491;28;20403;-51
2021/07/30 03:55:10;;;;;;;;;;;;;;;27.41;44.90;99234.34;5111081;28;20423;-49
2021/07/30 03:57:36;;;;;;;;;;;;;;;27.78;43.86;99226.41;5110433;28;19912;-48
2021/07/30 04:00:01;;;;;;;;;;;;;;;27.65;43.96;99231.81;5111050;28;19919;-49
2021/07/30 04:02:26;;;;;;;;;;;;;;;27.82;43.36;99224.66;5110884;28;19912;-49
2021/07/30 04:04:52;;;;;;;;;;;;;;;28.09;42.56;99228.81;5110830;28;19918;-48
2021/07/30 04:07:17;;;;;;;;;;;;;;;28.26;42.94;99230.63;5111130;28;19911;-52
2021/07/30 04:09:42;;;;;;;;;;;;;;;28.69;42.17;99220.47;5110984;28;20011;-49
2021/07/30 04:12:07;;;;;;;;;;;;;;;28.84;41.95;99231.59;5110915;28;19915;-49
2021/07/30 04:14:33;;;;;;;;;;;;;;;28.61;42.55;99225.66;5110774;28;19915;-49
2021/07/30 04:16:58;;;;;;;;;;;;;;;28.76;42.52;99226.97;5110677;28;19955;-50
2021/07/30 04:19:23;;;;;;;;;;;;;;;29.32;41.10;99223.81;5108455;28;19924;-48
2021/07/30 04:21:50;;;;;;;;;;;;;;;29.78;40.43;99229.22;5090367;28;19968;-47
2021/07/30 04:24:16;;;;;;;;;;;;;;;30.15;39.90;99234.63;5090446;28;19916;-50
2021/07/30 04:26:41;;;;;;;;;;;;;;;29.90;40.27;99231.13;5088727;28;20228;-48
2021/07/30 04:29:07;;;;;;;;;;;;;;;29.87;40.88;99238.09;5090236;28;19912;-49
2021/07/30 04:31:32;;;;;;;;;;;;;;;30.26;39.76;99230.25;5090365;28;19923;-47
2021/07/30 04:33:57;;;;;;;;;;;;;;;30.62;38.38;99234.03;5090273;28;19976;-47
2021/07/30 04:36:23;;;;;;;;;;;;;;;30.98;37.40;99224.03;5089900;28;19923;-48
2021/07/30 04:38:48;;;;;;;;;;;;;;;31.63;36.68;99226.44;5083018;28;19920;-48
2021/07/30 04:41:13;;;;;;;;;;;;;;;31.20;36.52;99224.56;5074248;28;20318;-47
2021/07/30 04:43:39;;;;;;;;;;;;;;;31.28;36.31;99234.56;5095964;28;19912;-48
2021/07/30 04:46:04;;;;;;;;;;;;;;;31.66;35.28;99238.66;5117392;28;19973;-48
2021/07/30 04:48:29;;;;;;;;;;;;;;;32.15;34.54;99239.00;5117262;27;19913;-49
2021/07/30 04:50:55;;;;;;;;;;;;;;;32.67;33.62;99239.69;5117282;28;19912;-49
2021/07/30 04:53:20;;;;;;;;;;;;;;;32.77;33.39;99240.22;5117289;28;19916;-50
2021/07/30 04:55:45;;;;;;;;;;;;;;;32.82;33.18;99242.69;5117055;27;20213;-49
2021/07/30 04:58:11;;;;;;;;;;;;;;;32.89;33.01;99238.13;5116013;28;19920;-49
2021/07/30 05:00:36;;;;;;;;;;;;;;;33.35;32.30;99236.56;5116677;27;19938;-50
2021/07/30 05:03:02;;;;;;;;;;;;;;;33.92;31.41;99239.41;5115563;28;19912;-49
2021/07/30 05:05:28;;;;;;;;;;;;;;;34.17;30.33;99237.03;5115657;27;20356;-50
2021/07/30 05:07:53;;;;;;;;;;;;;;;34.07;30.26;99243.97;5115657;28;19971;-47
2021/07/30 05:10:19;;;;;;;;;;;;;;;34.17;30.01;99243.31;5115297;28;19952;-50
2021/07/30 05:12:44;;;;;;;;;;;;;;;34.49;30.02;99244.91;5115636;28;19916;-50
2021/07/30 05:15:09;;;;;;;;;;;;;;;35.08;29.33;99247.91;5114557;27;19924;-47
2021/07/30 05:17:35;;;;;;;;;;;;;;;35.19;29.51;99257.91;5115879;28;19969;-50
2021/07/30 05:20:00;;;;;;;;;;;;;;;35.16;29.23;99244.81;5108764;27;20260;-48
2021/07/30 05:22:25;;;;;;;;;;;;;;;35.23;29.06;99249.66;5095805;28;19939;-49
2021/07/30 05:24:51;;;;;;;;;;;;;;;35.65;28.47;99253.16;5095649;28;19952;-48
2021/07/30 05:27:18;;;;;;;;;;;;;;;36.08;27.67;99248.69;5094647;28;20274;-50
2021/07/30 05:29:45;;;;;;;;;;;;;;;36.14;27.39;99258.22;5095975;28;19912;-51
2021/07/30 05:32:10;;;;;;;;;;;;;;;35.91;27.32;99254.91;5095750;28;19912;-49
2021/07/30 05:34:35;;;;;;;;;;;;;;;35.97;27.04;99253.38;5095722;28;20315;-49
2021/07/30 05:37:01;;;;;;;;;;;;;;;36.34;26.64;99255.16;5095487;28;20032;-49
2021/07/30 05:39:26;;;;;;;;;;;;;;;37.06;25.56;99250.59;5095517;28;20244;-50
2021/07/30 05:41:51;;;;;;;;;;;;;;;36.82;26.19;99243.84;5095441;28;19965;-49
2021/07/30 05:44:17;;;;;;;;;;;;;;;36.79;26.42;99259.28;5110684;28;19984;-49
2021/07/30 05:46:42;;;;;;;;;;;;;;;36.91;26.20;99260.09;5115683;28;19979;-50
2021/07/30 05:49:07;;;;;;;;;;;;;;;37.06;25.60;99253.38;5115571;28;19919;-50
2021/07/30 05:51:38;;;;;;;;;;;;;;;37.74;25.20;99256.19;5115868;28;20336;-51
2021/07/30 05:54:04;;;;;;;;;;;;;;;36.63;26.49;99253.25;5111380;28;19912;-50
2021/07/30 05:56:29;;;;;;;;;;;;;;;36.57;26.77;99250.06;5112635;28;19916;-51
2021/07/30 05:58:55;;;;;;;;;;;;;;;37.05;26.59;99251.81;5112871;28;20344;-51
2021/07/30 06:01:20;;;;;;;;;;;;;;;37.69;25.42;99253.03;5112839;28;19912;-49
2021/07/30 06:03:45;;;;;;;;;;;;;;;38.21;25.24;99250.50;5112508;28;20341;-51
2021/07/30 06:06:10;;;;;;;;;;;;;;;37.57;25.65;99240.34;5113170;28;19922;-51
2021/07/30 06:08:36;;;;;;;;;;;;;;;37.88;25.21;99252.59;5113114;28;19915;-50
2021/07/30 06:11:02;;;;;;;;;;;;;;;37.83;25.18;99252.19;5113404;28;19918;-48
2021/07/30 06:13:28;;;;;;;;;;;;;;;38.44;23.97;99252.00;5112388;28;20301;-50
2021/07/30 06:15:53;;;;;;;;;;;;;;;38.14;24.21;99243.03;5113777;28;19934;-48
2021/07/30 06:18:18;;;;;;;;;;;;;;;37.91;24.75;99251.78;5113740;28;19920;-49
2021/07/30 06:20:44;;;;;;;;;;;;;;;38.09;24.48;99250.97;5100609;28;19984;-51
2021/07/30 06:23:09;;;;;;;;;;;;;;;38.32;24.11;99250.47;5093116;28;19916;-51
2021/07/30 06:25:34;;;;;;;;;;;;;;;39.08;22.96;99248.09;5093005;28;19916;-51
2021/07/30 06:28:01;;;;;;;;;;;;;;;38.70;23.84;99247.94;5093171;28;19916;-50
2021/07/30 06:30:27;;;;;;;;;;;;;;;38.73;23.13;99249.91;5092715;28;19916;-49
2021/07/30 06:32:52;;;;;;;;;;;;;;;39.22;22.71;99247.19;5093298;28;19912;-52
2021/07/30 06:35:20;;;;;;;;;;;;;;;38.70;23.22;99248.72;5092985;28;20084;-51
2021/07/30 06:37:45;;;;;;;;;;;;;;;39.12;22.89;99248.88;5092516;28;19913;-51
2021/07/30 06:40:10;;;;;;;;;;;;;;;39.02;22.79;99238.63;5092503;28;19919;-52
2021/07/30 06:42:36;;;;;;;;;;;;;;;39.30;22.54;99252.31;5092326;28;20304;-51
2021/07/30 06:45:01;;;;;;;;;;;;;;;39.71;22.42;99252.75;5092235;28;19912;-51
2021/07/30 06:47:27;;;;;;;;;;;;;;;40.14;21.43;99244.75;5092466;28;19916;-50
2021/07/30 06:49:52;;;;;;;;;;;;;;;39.87;21.93;99255.75;5092227;28;20372;-50
2021/07/30 06:52:17;;;;;;;;;;;;;;;39.69;22.51;99251.16;5091777;28;20328;-50
2021/07/30 06:54:43;;;;;;;;;;;;;;;39.77;22.60;99251.09;5092422;28;19920;-51
2021/07/30 06:57:08;;;;;;;;;;;;;;;40.41;21.72;99247.59;5093419;28;20391;-49
2021/07/30 06:59:34;;;;;;;;;;;;;;;40.72;21.51;99249.56;5092329;28;19922;-50
2021/07/30 07:02:02;;;;;;;;;;;;;;;40.38;22.08;99247.66;5092005;28;19977;-49
2021/07/30 07:04:27;;;;;;;;;;;;;;;40.72;21.43;99255.94;5092393;28;19919;-51
2021/07/30 07:06:52;;;;;;;;;;;;;;;41.03;21.36;99255.91;5091329;28;19912;-50
2021/07/30 07:09:18;;;;;;;;;;;;;;;41.98;20.35;99248.28;5091295;28;19912;-50
2021/07/30 07:11:43;;;;;;;;;;;;;;;41.75;19.84;99243.56;5090985;28;19924;-51
2021/07/30 07:14:09;;;;;;;;;;;;;;;41.40;19.74;99251.34;5091758;28;19912;-51
2021/07/30 07:16:34;;;;;;;;;;;;;;;41.60;19.47;99241.00;5091386;28;20049;-51
2021/07/30 07:18:59;;;;;;;;;;;;;;;41.87;19.00;99250.50;5091301;28;19924;-51
2021/07/30 07:21:24;;;;;;;;;;;;;;;40.99;18.84;99244.00;5091552;28;19916;-51
2021/07/30 07:23:50;;;;;;;;;;;;;;;41.08;19.19;99247.06;5090883;28;20332;-51
2021/07/30 07:26:16;;;;;;;;;;;;;;;41.58;18.88;99243.44;5091430;28;19912;-50
2021/07/30 07:28:41;;;;;;;;;;;;;;;41.93;18.25;99246.03;5091257;28;20413;-50
2021/07/30 07:31:07;;;;;;;;;;;;;;;42.59;17.40;99241.47;5091444;28;19919;-51
2021/07/30 07:33:32;;;;;;;;;;;;;;;42.65;17.26;99241.75;5091575;28;19912;-51
2021/07/30 07:35:57;;;;;;;;;;;;;;;42.45;17.71;99238.97;5091137;28;20290;-49
2021/07/30 07:38:23;;;;;;;;;;;;;;;42.49;17.42;99234.91;5090037;28;19947;-50
2021/07/30 07:40:48;;;;;;;;;;;;;;;42.08;18.02;99233.38;5091512;28;20003;-51
2021/07/30 07:43:14;;;;;;;;;;;;;;;42.92;17.49;99233.94;5097662;28;20462;-51
2021/07/30 07:45:39;;;;;;;;;;;;;;;43.04;17.36;99234.47;5111637;28;20002;-50
2021/07/30 07:48:04;;;;;;;;;;;;;;;42.98;16.99;99234.22;5101425;28;19920;-51
2021/07/30 07:50:30;;;;;;;;;;;;;;;43.00;17.42;99228.97;5090847;28;20347;-50
2021/07/30 07:52:55;;;;;;;;;;;;;;;43.23;17.18;99230.78;5091243;28;20028;-50
2021/07/30 07:55:20;;;;;;;;;;;;;;;43.54;16.98;99227.59;5090096;28;20402;-51
2021/07/30 07:57:46;;;;;;;;;;;;;;;43.36;16.64;99227.31;5090726;28;20006;-52
2021/07/30 08:00:11;;;;;;;;;;;;;;;43.22;15.79;99220.78;5090842;28;19912;-51
2021/07/30 08:02:36;;;;;;;;;;;;;;;43.24;15.94;99223.97;5090956;28;19984;-50
2021/07/30 08:05:02;;;;;;;;;;;;;;;43.36;15.76;99219.69;5090834;28;20303;-48
2021/07/30 08:07:27;;;;;;;;;;;;;;;42.82;16.31;99214.59;5090546;28;19919;-48
2021/07/30 08:09:52;;;;;;;;;;;;;;;43.11;15.91;99223.09;5090461;28;19916;-49
2021/07/30 08:12:18;;;;;;;;;;;;;;;43.21;15.74;99215.66;5090474;28;20016;-50
2021/07/30 08:14:43;;;;;;;;;;;;;;;43.64;15.17;99218.13;5090870;28;20273;-48
2021/07/30 08:17:08;;;;;;;;;;;;;;;43.68;15.36;99215.22;5090157;28;19920;-50
2021/07/30 08:19:34;;;;;;;;;;;;;;;44.04;15.42;99215.03;5090151;28;20459;-48
2021/07/30 08:22:00;;;;;;;;;;;;;;;43.59;15.89;99210.28;5090475;28;20038;-49
2021/07/30 08:24:25;;;;;;;;;;;;;;;43.51;15.70;99206.09;5090429;28;19912;-50
2021/07/30 08:26:50;;;;;;;;;;;;;;;43.91;14.83;99201.00;5090421;28;19919;-50
2021/07/30 08:29:16;;;;;;;;;;;;;;;43.75;15.12;99205.88;5090794;28;19962;-50
2021/07/30 08:31:41;;;;;;;;;;;;;;;43.92;14.67;99196.94;5090739;28;19912;-51
2021/07/30 08:34:06;;;;;;;;;;;;;;;43.76;15.46;99194.22;5090547;28;19920;-51
2021/07/30 08:36:32;;;;;;;;;;;;;;;43.73;15.15;99189.50;5090215;28;19916;-51
2021/07/30 08:38:57;;;;;;;;;;;;;;;44.08;15.26;99186.91;5090553;28;19912;-48
2021/07/30 08:41:22;;;;;;;;;;;;;;;44.34;14.54;99190.53;5089376;28;19912;-50
2021/07/30 08:43:52;;;;;;;;;;;;;;;44.09;15.42;99182.88;5101597;28;19911;-50
2021/07/30 08:46:17;;;;;;;;;;;;;;;44.07;14.70;99174.91;5110398;28;20305;-50
2021/07/30 08:48:43;;;;;;;;;;;;;;;44.23;14.58;99176.06;5109706;28;19911;-51
2021/07/30 08:51:09;;;;;;;;;;;;;;;44.46;14.14;99169.34;5105909;28;19935;-50
2021/07/30 08:53:34;;;;;;;;;;;;;;;44.34;14.05;99175.75;5090634;28;20010;-52
2021/07/30 08:56:00;;;;;;;;;;;;;;;44.38;14.72;99168.78;5088872;28;20015;-51
2021/07/30 08:58:25;;;;;;;;;;;;;;;44.28;14.33;99172.72;5089232;28;19919;-51
2021/07/30 09:00:51;;;;;;;;;;;;;;;44.39;14.18;99161.94;5089610;28;19911;-52
2021/07/30 09:03:16;;;;;;;;;;;;;;;44.28;14.49;99165.06;5090279;28;20002;-51
2021/07/30 09:05:41;;;;;;;;;;;;;;;43.28;14.55;99154.69;5089245;28;19916;-50
2021/07/30 09:08:07;;;;;;;;;;;;;;;44.09;14.58;99152.84;5090198;28;19916;-50
2021/07/30 09:10:36;;;;;;;;;;;;;;;44.34;14.47;99154.09;5090024;28;19912;-49
2021/07/30 09:13:18;;;;;;;;;;;;;;;44.77;13.86;99151.97;5089205;28;20008;-50
2021/07/30 09:15:44;;;;;;;;;;;;;;;44.40;14.19;99134.69;5090183;28;20389;-50
2021/07/30 09:18:25;;;;;;;;;;;;;;;45.00;13.77;99129.13;5089080;28;19922;-51
2021/07/30 09:20:51;;;;;;;;;;;;;;;44.79;14.75;99127.03;5090164;28;20047;-50
2021/07/30 09:23:18;;;;;;;;;;;;;;;44.80;13.74;99117.38;5090403;28;20300;-50
2021/07/30 09:25:43;;;;;;;;;;;;;;;44.70;13.58;99111.66;5089398;28;19912;-51
2021/07/30 09:28:08;;;;;;;;;;;;;;;45.02;13.50;99109.81;5092450;28;20015;-49
2021/07/30 09:30:34;;;;;;;;;;;;;;;45.30;13.18;99104.47;5093788;28;19951;-50
2021/07/30 09:32:59;;;;;;;;;;;;;;;45.54;13.48;99101.97;5092352;28;19928;-50
2021/07/30 09:35:24;;;;;;;;;;;;;;;45.30;13.68;99098.03;5093489;28;19923;-50
2021/07/30 09:38:08;;;;;;;;;;;;;;;45.20;13.77;99091.56;5093842;28;19912;-49
2021/07/30 09:40:34;;;;;;;;;;;;;;;45.10;14.05;99090.69;5093421;28;20326;-50
2021/07/30 09:43:05;;;;;;;;;;;;;;;45.49;13.20;99080.09;5097792;28;19998;-48
2021/07/30 09:45:31;;;;;;;;;;;;;;;46.09;12.97;99078.25;5112659;28;19912;-51
2021/07/30 09:47:56;;;;;;;;;;;;;;;45.31;12.97;99072.31;5114310;28;20397;-51
2021/07/30 09:50:22;;;;;;;;;;;;;;;44.81;13.64;99060.81;5113961;28;19907;-50
2021/07/30 09:52:48;;;;;;;;;;;;;;;44.99;14.11;99070.66;5113697;28;20287;-51
2021/07/30 09:55:14;;;;;;;;;;;;;;;44.59;13.30;99059.97;5113994;28;19959;-51
2021/07/30 09:57:40;;;;;;;;;;;;;;;44.90;12.41;99060.16;5114309;28;19912;-51
2021/07/30 10:00:06;;;;;;;;;;;;;;;44.83;12.86;99051.94;5113877;28;19912;-51
2021/07/30 10:02:33;;;;;;;;;;;;;;;44.08;13.91;99058.00;5113668;28;20044;-50
2021/07/30 10:04:58;;;;;;;;;;;;;;;44.35;13.72;99045.56;5107568;28;19912;-38
2021/07/30 10:07:27;;;;;;;;;;;;;;;43.92;13.49;99054.06;5093248;28;19930;-38
2021/07/30 10:09:57;;;;;;;;;;;;;;;44.65;13.08;99047.75;5093644;28;19923;-39
2021/07/30 10:12:23;;;;;;;;;;;;;;;45.22;12.17;99042.16;5090807;28;19996;-38
2021/07/30 10:14:48;;;;;;;;;;;;;;;46.21;11.82;99044.41;5093211;28;20360;-38
2021/07/30 10:17:15;;;;;;;;;;;;;;;45.68;12.24;99040.88;5093003;28;19924;-38
2021/07/30 10:19:41;;;;;;;;;;;;;;;44.74;12.96;99033.00;5093134;28;19927;-38
2021/07/30 10:22:07;;;;;;;;;;;;;;;44.38;13.36;99033.41;5093194;28;19918;-37
2021/07/30 10:24:33;;;;;;;;;;;;;;;44.15;13.71;99028.97;5093091;28;19912;-38
2021/07/30 10:27:02;;;;;;;;;;;;;;;44.98;12.57;99021.41;5093123;28;19912;-38
2021/07/30 10:29:48;;;;;;;;;;;;;;;45.55;13.09;99033.31;5091521;28;19943;-39
2021/07/30 10:32:13;;;;;;;;;;;;;;;44.92;13.46;99015.59;5081143;28;19912;-38
2021/07/30 10:34:48;;;;;;;;;;;;;;;44.68;13.39;99015.97;5092732;28;19919;-38
2021/07/30 10:37:32;;;;;;;;;;;;;;;45.12;13.75;99011.66;5092405;28;19988;-38
2021/07/30 10:40:16;;;;;;;;;;;;;;;45.59;12.61;98997.44;5092059;28;19959;-39
2021/07/30 10:43:00;;;;;;;;;;;;;;;45.63;12.74;98998.09;5094596;28;19947;-39
2021/07/30 10:45:26;;;;;;;;;;;;;;;44.64;12.95;98990.06;5112989;28;19920;-39
2021/07/30 10:48:26;;;;;;;;;;;;;;;44.44;13.59;98992.34;5112919;28;19918;-39
2021/07/30 10:51:07;;;;;;;;;;;;;;;44.76;12.74;98990.47;5090353;28;19912;-39
2021/07/30 10:53:36;;;;;;;;;;;;;;;44.94;12.95;98992.69;5110376;28;19911;-38
2021/07/30 10:56:02;;;;;;;;;;;;;;;45.11;12.93;98987.63;5112614;28;19942;-37
2021/07/30 10:58:52;;;;;;;;;;;;;;;43.73;13.43;98983.00;5112533;28;19915;-38
2021/07/30 11:01:21;;;;;;;;;;;;;;;43.46;14.23;98974.25;5082658;28;19920;-40
2021/07/30 11:03:50;;;;;;;;;;;;;;;43.62;14.22;98976.97;5097229;28;19962;-38
2021/07/30 11:06:35;;;;;;;;;;;;;;;43.89;13.89;98970.16;5103294;28;19943;-38
2021/07/30 11:11:36;;;;;;;;;;;;;;;43.71;13.95;98951.88;5100807;28;20002;-38
2021/07/30 11:14:01;;;;;;;;;;;;;;;43.47;14.09;98957.00;5088803;28;19916;-40
2021/07/30 11:16:26;;;;;;;;;;;;;;;43.54;13.75;98953.97;5089239;28;20012;-38
2021/07/30 11:18:51;;;;;;;;;;;;;;;43.79;12.78;98941.22;5093832;28;19977;-38
2021/07/30 11:21:17;;;;;;;;;;;;;;;44.27;13.04;98944.06;5092904;28;19928;-38
2021/07/30 11:23:45;;;;;;;;;;;;;;;45.00;11.26;98934.72;5097252;28;19916;-38
2021/07/30 11:26:10;;;;;;;;;;;;;;;44.07;12.15;98925.50;5093732;28;19916;-39
2021/07/30 11:28:36;;;;;;;;;;;;;;;44.04;11.73;98922.81;5096361;28;19923;-39
2021/07/30 11:31:01;;;;;;;;;;;;;;;44.07;10.93;98928.28;5091725;28;20351;-38
2021/07/30 11:33:27;;;;;;;;;;;;;;;44.25;11.19;98922.13;5091640;28;19916;-38
2021/07/30 11:35:52;;;;;;;;;;;;;;;44.93;10.90;98921.75;5091364;28;20007;-39
2021/07/30 11:38:17;;;;;;;;;;;;;;;44.05;10.29;98924.38;5091704;28;19916;-38
2021/07/30 11:40:42;;;;;;;;;;;;;;;44.01;11.05;98916.09;5091407;28;19960;-38
2021/07/30 11:43:08;;;;;;;;;;;;;;;43.77;11.19;98914.91;5090339;28;19912;-42
2021/07/30 11:45:33;;;;;;;;;;;;;;;43.95;10.98;98901.09;5091532;28;19912;-38
2021/07/30 11:47:59;;;;;;;;;;;;;;;44.52;10.58;98908.78;5090354;28;20372;-38
2021/07/30 11:50:26;;;;;;;;;;;;;;;44.75;10.68;98908.34;5088835;28;19912;-39
2021/07/30 11:52:51;;;;;;;;;;;;;;;44.44;11.28;98902.63;5089714;28;20252;-37
2021/07/30 11:55:17;;;;;;;;;;;;;;;44.69;11.55;98899.75;5090986;28;19965;-37
2021/07/30 11:57:42;;;;;;;;;;;;;;;45.35;11.44;98901.72;5091171;28;20003;-39
2021/07/30 12:00:08;;;;;;;;;;;;;;;45.82;11.41;98899.84;5090264;28;19935;-38
2021/07/30 12:02:33;;;;;;;;;;;;;;;46.03;11.14;98896.13;5091591;28;20402;-38
2021/07/30 12:04:59;;;;;;;;;;;;;;;45.85;11.34;98893.28;5091293;28;20343;-38
2021/07/30 12:07:37;;;;;;;;;;;;;;;46.15;11.35;98888.06;5090754;28;20410;-38
2021/07/30 12:10:10;;;;;;;;;;;;;;;45.58;10.81;98880.72;5091422;28;19912;-38
2021/07/30 12:12:38;;;;;;;;;;;;;;;45.76;11.09;98885.66;5091031;28;19916;-39
2021/07/30 12:15:04;;;;;;;;;;;;;;;45.39;11.66;98873.50;5088900;28;19927;-39
2021/07/30 12:17:30;;;;;;;;;;;;;;;44.80;11.29;98871.31;5090126;28;19916;-38
2021/07/30 12:20:14;;;;;;;;;;;;;;;44.06;11.72;98867.91;5089456;28;19959;-40
2021/07/30 12:22:43;;;;;;;;;;;;;;;44.31;11.20;98869.84;5090478;28;19938;-38
2021/07/30 12:25:11;;;;;;;;;;;;;;;44.70;10.81;98859.22;5090510;28;19912;-37
2021/07/30 12:27:36;;;;;;;;;;;;;;;45.62;11.21;98858.91;5090544;28;19912;-37
2021/07/30 12:30:02;;;;;;;;;;;;;;;46.47;10.56;98857.78;5090373;28;19919;-37
2021/07/30 12:32:36;;;;;;;;;;;;;;;45.91;10.69;98854.91;5090564;28;20010;-37
2021/07/30 12:35:23;;;;;;;;;;;;;;;45.95;10.74;98851.97;5089987;28;20112;-37
2021/07/30 12:38:02;;;;;;;;;;;;;;;45.97;10.91;98858.66;5090697;28;19912;-38
2021/07/30 12:40:28;;;;;;;;;;;;;;;45.19;11.23;98843.00;5090441;28;19916;-38
2021/07/30 12:43:09;;;;;;;;;;;;;;;45.16;11.26;98839.06;5090712;28;20263;-38
2021/07/30 12:45:38;;;;;;;;;;;;;;;44.83;11.35;98845.13;5090251;28;19951;-38
2021/07/30 12:48:03;;;;;;;;;;;;;;;44.78;11.06;98825.31;5090699;28;20388;-38
2021/07/30 12:50:35;;;;;;;;;;;;;;;45.20;11.02;98827.69;5090778;28;19920;-38